NML weather

Fort McMurray / Mildred Lake Airport
Fort McMurray, Alberta, Canada

Public forecast

Using degrees Celsius for public forecast. Weather courtesy of forecast.io.

METAR (pilot weather report)

Closest report is Fort McMurray Airport, 26.8 nm (49.6 km) SSE. Retrieved 2019/08/19 22:00 UTC (32 minutes ago):

CYMM 192200Z AUTO 28007KT 9SM OVC065 14/08 A2997 RMK SLP162

TAF (pilot weather forecast)

Closest forecast is Fort McMurray Airport, 26.8 nm (49.6 km) SSE. Retrieved 2019/08/19 19:42 UTC (3 hours ago):

TAF TAF CYMM 191838Z 1919/2007 32006KT P6SM OVC020 TEMPO 1919/1921 BKN025 FM192100 32008KT P6SM BKN030 BECMG 2004/2006 VRB03KT RMK FCST BASED ON AUTO OBS. NXT FCST BY 200100Z